SHASTA DAM (USBR) (SHA)

Elevation: 1067' · SACRAMENTO R basin · Operator: US Bureau of Reclamation

Provisional data, subject to change.
Query executed Thursday at 22:40:19   clock

Select a sensor type for a plot of data.
Note: Reservoir Flows are daily averages.

Earlier

Date RES ELE    STORAGE    RES CHG    TOC STO    ABV TOC    OUTFLOW    INFLOW    EVAP    FNF    RIV REL    PPT INC    RAIN    SPILL    DIS PWR   
 FEET   AF   AF   AF   AF   CFS   CFS   CFS   CFS   CFS   INCHES   INCHES   CFS   CFS  
10/14/2012 985.93 2533633 -3644 4253700 -1720067 4532 2754 59 2615 0 0.00 0.00 0 4532
10/15/2012 985.74 2529812 -3821 4232400 -1702588 4515 2648 59 2827 0 0.00 0.00 0 4515
10/16/2012 985.54 2525789 -4023 4211100 -1685311 4580 2659 107 2731 0 0.00 0.00 0 4580
10/17/2012 985.33 2521565 -4224 4189800 -1668235 4463 2469 136 2469 0 0.00 0.00 0 4463
10/18/2012 985.10 2516939 -4626 4168500 -1651561 4922 2714 124 2478 0 0.00 0.00 0 4922
10/19/2012 984.86 2512127 -4812 4147200 -1635073 4872 2564 118 2743 0 0.00 0.00 0 4872
10/20/2012 984.55 2505926 -6201 4125900 -1619974 5262 2224 88 2570 e 0 0.00 0.00 0 5262
10/21/2012 984.26 2500125 -5801 4104600 -1604475 5150 2343 118 2570 e 0 0.00 0.00 0 5150
10/22/2012 984.10 2496924 -3201 4083200 -1586276 4953 3351 12 3666 0 1.01 1.01 0 4953
10/23/2012 983.92 2493333 -3591 4061900 -1568567 5082 3331 59 3589 0 0.02 1.03 0 5082
10/24/2012 983.75 2489951 -3382 4040600 -1550649 5013 3320 12 3425 0 0.49 1.52 0 5013
10/25/2012 983.64 2487763 -2188 4019300 -1531537 4649 3675 129 3249 0 0.07 1.59 0 4649
10/26/2012 983.45 2483983 -3780 3998000 -1514017 5074 3180 12 2799 0 0.00 1.59 0 5074
10/27/2012 983.28 2480601 -3382 3976700 -1496099 4985 3368 88 3044 0 0.00 1.59 0 4985
10/28/2012 983.14 2477816 -2785 3955400 -1477584 4813 3456 47 3072 0 0.00 1.59 0 4813
10/29/2012 982.99 2474833 -2983 3934100 -1459267 4874 3382 12 2954 0 0.00 1.59 0 4874
10/30/2012 982.78 2470679 -4154 3912800 -1442121 5508 3455 41 3025 0 0.00 1.59 0 5508
10/31/2012 982.55 2466130 -4549 3891400 -1425270 5498 3246 41 3680 0 0.00 1.59 0 5498
11/01/2012 982.34 2461976 -4154 3870100 -1408124 5563 3475 6 3761 0 0.76 2.35 0 5563
11/02/2012 982.01 2455449 -6527 3848800 -1393351 5470 2220 41 2815 0 0.00 2.35 0 5470
11/03/2012 981.76 2450530 -4919 3827500 -1376970 5396 2980 64 3202 0 0.00 2.35 0 5396
11/04/2012 981.50 2445415 -5115 3806200 -1360785 5340 2825 64 3022 0 0.00 2.35 0 5340
11/05/2012 981.17 2438923 -6492 3784900 -1345977 5858 2672 87 3016 0 0.00 2.35 0 5858
11/06/2012 980.96 2434797 -- 3763600 -1328803 5477 3489 92 2853 0 0.00 2.35 0 5477
11/07/2012 980.94 2434405 -392 3742300 -1307895 4960 4808 46 3200 0 0.00 2.35 0 4960
11/08/2012 980.78 2431276 -3129 3721000 -1289724 5187 3684 75 2530 0 0.00 2.35 0 5187
11/09/2012 980.60 2427755 -3521 3699600 -1271845 5361 3949 363 3189 0 0.87 3.22 0 5361
11/10/2012 980.31 2422083 -5672 3678300 -1256217 5161 2364 63 2482 e 0 0.00 3.22 0 5161
11/11/2012 980.08 2417584 -4499 3657000 -1239416 5074 2863 57 2863 0 0.00 3.22 0 5074
11/12/2012 979.92 2414460 -3124 3635700 -1221240 5261 3732 46 3732 0 0.00 3.22 0 5261
11/13/2012 979.81 2412317 -2143 3614400 -1202083 5182 4131 29 2482 e 0 0.00 3.22 0 5182
11/14/2012 979.63 2408810 -3507 3593100 -1184290 5238 3487 17 3086 0 0.01 3.23 0 5238

Later | Latest

Warning! This data is preliminary and subject to revision.

Download Data Now Download Data Now | Show SHA Map | Plot SHA Data | 1 Month SHA Data | Real-Time SHA Data | SHA Info